sensor_id;sensor_type;location;lat;lon;timestamp;temperature;humidity
61253;DHT22;47127;47.516;8.596;2022-12-10T00:01:44;3.20;99.90
61253;DHT22;47127;47.516;8.596;2022-12-10T00:04:10;3.10;99.90
61253;DHT22;47127;47.516;8.596;2022-12-10T00:06:37;3.10;99.90
61253;DHT22;47127;47.516;8.596;2022-12-10T00:09:03;3.10;99.90
61253;DHT22;47127;47.516;8.596;2022-12-10T00:11:29;3.10;99.90
61253;DHT22;47127;47.516;8.596;2022-12-10T00:13:55;3.20;99.90
61253;DHT22;47127;47.516;8.596;2022-12-10T00:16:22;3.20;99.90
61253;DHT22;47127;47.516;8.596;2022-12-10T00:18:48;3.20;99.90
61253;DHT22;47127;47.516;8.596;2022-12-10T00:21:14;3.20;99.90
61253;DHT22;47127;47.516;8.596;2022-12-10T00:23:41;3.20;99.90
61253;DHT22;47127;47.516;8.596;2022-12-10T00:26:22;3.20;99.90
61253;DHT22;47127;47.516;8.596;2022-12-10T00:28:48;3.10;99.90
61253;DHT22;47127;47.516;8.596;2022-12-10T00:31:15;3.10;99.90
61253;DHT22;47127;47.516;8.596;2022-12-10T00:33:42;3.00;99.90
61253;DHT22;47127;47.516;8.596;2022-12-10T00:36:08;3.00;99.90
61253;DHT22;47127;47.516;8.596;2022-12-10T00:38:34;3.00;99.90
61253;DHT22;47127;47.516;8.596;2022-12-10T00:41:00;3.10;99.90
61253;DHT22;47127;47.516;8.596;2022-12-10T00:43:25;3.00;99.90
61253;DHT22;47127;47.516;8.596;2022-12-10T00:45:51;3.10;99.90
61253;DHT22;47127;47.516;8.596;2022-12-10T00:48:16;3.00;99.90
61253;DHT22;47127;47.516;8.596;2022-12-10T00:50:42;3.00;99.90
61253;DHT22;47127;47.516;8.596;2022-12-10T00:53:07;3.00;99.90
61253;DHT22;47127;47.516;8.596;2022-12-10T00:55:32;3.10;99.90
61253;DHT22;47127;47.516;8.596;2022-12-10T00:57:58;3.10;99.90
61253;DHT22;47127;47.516;8.596;2022-12-10T01:00:23;3.00;99.90
61253;DHT22;47127;47.516;8.596;2022-12-10T01:02:49;3.10;99.90
61253;DHT22;47127;47.516;8.596;2022-12-10T01:05:15;3.00;99.90
61253;DHT22;47127;47.516;8.596;2022-12-10T01:07:40;2.90;99.90
61253;DHT22;47127;47.516;8.596;2022-12-10T01:10:06;2.90;99.90
61253;DHT22;47127;47.516;8.596;2022-12-10T01:12:31;3.00;99.90
61253;DHT22;47127;47.516;8.596;2022-12-10T01:14:57;3.10;99.90
61253;DHT22;47127;47.516;8.596;2022-12-10T01:17:22;3.10;99.90
61253;DHT22;47127;47.516;8.596;2022-12-10T01:19:48;3.10;99.90
61253;DHT22;47127;47.516;8.596;2022-12-10T01:22:13;3.10;99.90
61253;DHT22;47127;47.516;8.596;2022-12-10T01:24:39;3.10;99.90
61253;DHT22;47127;47.516;8.596;2022-12-10T01:27:04;3.10;99.90
61253;DHT22;47127;47.516;8.596;2022-12-10T01:29:30;3.10;99.90
61253;DHT22;47127;47.516;8.596;2022-12-10T01:31:55;3.10;99.90
61253;DHT22;47127;47.516;8.596;2022-12-10T01:34:22;3.10;99.90
61253;DHT22;47127;47.516;8.596;2022-12-10T01:36:51;3.00;99.90
61253;DHT22;47127;47.516;8.596;2022-12-10T01:39:17;3.10;99.90
61253;DHT22;47127;47.516;8.596;2022-12-10T01:41:44;3.10;99.90
61253;DHT22;47127;47.516;8.596;2022-12-10T01:46:39;3.20;99.90
61253;DHT22;47127;47.516;8.596;2022-12-10T01:49:05;3.10;99.90
61253;DHT22;47127;47.516;8.596;2022-12-10T01:51:32;3.10;99.90
61253;DHT22;47127;47.516;8.596;2022-12-10T01:53:58;3.10;99.90
61253;DHT22;47127;47.516;8.596;2022-12-10T01:56:23;3.00;99.90
61253;DHT22;47127;47.516;8.596;2022-12-10T01:58:50;3.00;99.90
61253;DHT22;47127;47.516;8.596;2022-12-10T02:01:21;2.90;99.90
61253;DHT22;47127;47.516;8.596;2022-12-10T02:03:56;3.00;99.90
61253;DHT22;47127;47.516;8.596;2022-12-10T02:14:36;3.10;99.90
61253;DHT22;47127;47.516;8.596;2022-12-10T02:17:05;3.10;99.90
61253;DHT22;47127;47.516;8.596;2022-12-10T02:22:11;3.20;99.90
61253;DHT22;47127;47.516;8.596;2022-12-10T02:24:37;3.10;99.90
61253;DHT22;47127;47.516;8.596;2022-12-10T02:27:21;3.20;99.90
61253;DHT22;47127;47.516;8.596;2022-12-10T02:29:49;3.10;99.90
61253;DHT22;47127;47.516;8.596;2022-12-10T02:32:20;3.10;99.90
61253;DHT22;47127;47.516;8.596;2022-12-10T02:34:48;3.00;99.90
61253;DHT22;47127;47.516;8.596;2022-12-10T02:37:15;3.00;99.90
61253;DHT22;47127;47.516;8.596;2022-12-10T02:39:43;3.00;99.90
61253;DHT22;47127;47.516;8.596;2022-12-10T02:42:10;3.00;99.90
61253;DHT22;47127;47.516;8.596;2022-12-10T02:44:37;3.10;99.90
61253;DHT22;47127;47.516;8.596;2022-12-10T02:47:05;3.10;99.90
61253;DHT22;47127;47.516;8.596;2022-12-10T02:49:31;3.10;99.90
61253;DHT22;47127;47.516;8.596;2022-12-10T02:51:57;3.20;99.90
61253;DHT22;47127;47.516;8.596;2022-12-10T02:54:43;3.20;99.90
61253;DHT22;47127;47.516;8.596;2022-12-10T03:02:19;3.10;99.90
61253;DHT22;47127;47.516;8.596;2022-12-10T03:07:39;3.10;99.90
61253;DHT22;47127;47.516;8.596;2022-12-10T03:10:11;3.20;99.90
61253;DHT22;47127;47.516;8.596;2022-12-10T03:12:41;3.20;99.90
61253;DHT22;47127;47.516;8.596;2022-12-10T03:15:08;3.10;99.90
61253;DHT22;47127;47.516;8.596;2022-12-10T03:17:34;3.10;99.90
61253;DHT22;47127;47.516;8.596;2022-12-10T03:20:01;3.10;99.90
61253;DHT22;47127;47.516;8.596;2022-12-10T03:22:27;3.10;99.90
61253;DHT22;47127;47.516;8.596;2022-12-10T03:24:53;3.20;99.90
61253;DHT22;47127;47.516;8.596;2022-12-10T03:27:19;3.20;99.90
61253;DHT22;47127;47.516;8.596;2022-12-10T03:29:50;3.20;99.90
61253;DHT22;47127;47.516;8.596;2022-12-10T03:32:15;3.20;99.90
61253;DHT22;47127;47.516;8.596;2022-12-10T03:34:42;3.10;99.90
61253;DHT22;47127;47.516;8.596;2022-12-10T03:37:08;3.10;99.90
61253;DHT22;47127;47.516;8.596;2022-12-10T03:39:34;3.10;99.90
61253;DHT22;47127;47.516;8.596;2022-12-10T03:41:59;3.00;99.90
61253;DHT22;47127;47.516;8.596;2022-12-10T03:44:32;3.10;99.90
61253;DHT22;47127;47.516;8.596;2022-12-10T03:46:57;3.20;99.90
61253;DHT22;47127;47.516;8.596;2022-12-10T03:49:23;3.10;99.90
61253;DHT22;47127;47.516;8.596;2022-12-10T03:51:48;3.10;99.90
61253;DHT22;47127;47.516;8.596;2022-12-10T03:54:14;3.10;99.90
61253;DHT22;47127;47.516;8.596;2022-12-10T03:56:39;3.20;99.90
61253;DHT22;47127;47.516;8.596;2022-12-10T03:59:05;3.10;99.90
61253;DHT22;47127;47.516;8.596;2022-12-10T04:01:30;3.20;99.90
61253;DHT22;47127;47.516;8.596;2022-12-10T04:03:56;3.20;99.90
61253;DHT22;47127;47.516;8.596;2022-12-10T04:06:21;3.20;99.90
61253;DHT22;47127;47.516;8.596;2022-12-10T04:08:47;3.10;99.90
61253;DHT22;47127;47.516;8.596;2022-12-10T04:11:13;3.10;99.90
61253;DHT22;47127;47.516;8.596;2022-12-10T04:13:39;3.10;99.90
61253;DHT22;47127;47.516;8.596;2022-12-10T04:16:23;3.00;99.90
61253;DHT22;47127;47.516;8.596;2022-12-10T04:18:52;2.80;99.90
61253;DHT22;47127;47.516;8.596;2022-12-10T04:21:18;2.90;99.90
61253;DHT22;47127;47.516;8.596;2022-12-10T04:24:02;2.90;99.90
61253;DHT22;47127;47.516;8.596;2022-12-10T04:26:46;2.90;99.90
61253;DHT22;47127;47.516;8.596;2022-12-10T04:29:18;3.00;99.90
61253;DHT22;47127;47.516;8.596;2022-12-10T04:31:44;3.10;99.90
61253;DHT22;47127;47.516;8.596;2022-12-10T04:34:09;3.00;99.90
61253;DHT22;47127;47.516;8.596;2022-12-10T04:36:34;3.00;99.90
61253;DHT22;47127;47.516;8.596;2022-12-10T04:39:00;3.00;99.90
61253;DHT22;47127;47.516;8.596;2022-12-10T04:41:25;3.00;99.90
61253;DHT22;47127;47.516;8.596;2022-12-10T04:43:51;3.00;99.90
61253;DHT22;47127;47.516;8.596;2022-12-10T04:46:17;3.00;99.90
61253;DHT22;47127;47.516;8.596;2022-12-10T04:48:42;3.00;99.90
61253;DHT22;47127;47.516;8.596;2022-12-10T04:51:08;3.00;99.90
61253;DHT22;47127;47.516;8.596;2022-12-10T04:53:33;3.00;99.90
61253;DHT22;47127;47.516;8.596;2022-12-10T04:55:59;2.90;99.90
61253;DHT22;47127;47.516;8.596;2022-12-10T04:58:26;3.00;99.90
61253;DHT22;47127;47.516;8.596;2022-12-10T05:01:05;3.00;99.90
61253;DHT22;47127;47.516;8.596;2022-12-10T05:03:31;2.90;99.90
61253;DHT22;47127;47.516;8.596;2022-12-10T05:06:07;2.90;99.90
61253;DHT22;47127;47.516;8.596;2022-12-10T05:08:33;3.00;99.90
61253;DHT22;47127;47.516;8.596;2022-12-10T05:11:03;3.00;99.90
61253;DHT22;47127;47.516;8.596;2022-12-10T05:13:28;3.10;99.90
61253;DHT22;47127;47.516;8.596;2022-12-10T05:15:54;3.10;99.90
61253;DHT22;47127;47.516;8.596;2022-12-10T05:18:19;3.00;99.90
61253;DHT22;47127;47.516;8.596;2022-12-10T05:20:45;3.00;99.90
61253;DHT22;47127;47.516;8.596;2022-12-10T05:23:10;3.10;99.90
61253;DHT22;47127;47.516;8.596;2022-12-10T05:25:58;3.10;99.90
61253;DHT22;47127;47.516;8.596;2022-12-10T05:28:23;3.00;99.90
61253;DHT22;47127;47.516;8.596;2022-12-10T05:30:48;3.10;99.90
61253;DHT22;47127;47.516;8.596;2022-12-10T05:33:14;3.20;99.90
61253;DHT22;47127;47.516;8.596;2022-12-10T05:35:39;3.10;99.90
61253;DHT22;47127;47.516;8.596;2022-12-10T05:38:05;3.10;99.90
61253;DHT22;47127;47.516;8.596;2022-12-10T05:40:34;3.10;99.90
61253;DHT22;47127;47.516;8.596;2022-12-10T05:43:00;3.10;99.90
61253;DHT22;47127;47.516;8.596;2022-12-10T05:45:26;3.10;99.90
61253;DHT22;47127;47.516;8.596;2022-12-10T05:47:51;3.20;99.90
61253;DHT22;47127;47.516;8.596;2022-12-10T05:50:16;3.20;99.90
61253;DHT22;47127;47.516;8.596;2022-12-10T05:52:42;3.20;99.90
61253;DHT22;47127;47.516;8.596;2022-12-10T05:55:08;3.10;99.90
61253;DHT22;47127;47.516;8.596;2022-12-10T05:57:33;3.10;99.90
61253;DHT22;47127;47.516;8.596;2022-12-10T06:00:00;3.10;99.90
61253;DHT22;47127;47.516;8.596;2022-12-10T06:02:26;3.10;99.90
61253;DHT22;47127;47.516;8.596;2022-12-10T06:04:51;3.00;99.90
61253;DHT22;47127;47.516;8.596;2022-12-10T06:07:16;3.00;99.90
61253;DHT22;47127;47.516;8.596;2022-12-10T06:09:42;3.00;99.90
61253;DHT22;47127;47.516;8.596;2022-12-10T06:12:07;3.00;99.90
61253;DHT22;47127;47.516;8.596;2022-12-10T06:14:33;3.00;99.90
61253;DHT22;47127;47.516;8.596;2022-12-10T06:16:58;3.00;99.90
61253;DHT22;47127;47.516;8.596;2022-12-10T06:19:24;2.90;99.90
61253;DHT22;47127;47.516;8.596;2022-12-10T06:21:49;2.90;99.90
61253;DHT22;47127;47.516;8.596;2022-12-10T06:24:15;2.90;99.90
61253;DHT22;47127;47.516;8.596;2022-12-10T06:26:40;2.90;99.90
61253;DHT22;47127;47.516;8.596;2022-12-10T06:29:05;2.90;99.90
61253;DHT22;47127;47.516;8.596;2022-12-10T06:31:31;2.80;99.90
61253;DHT22;47127;47.516;8.596;2022-12-10T06:33:56;2.90;99.90
61253;DHT22;47127;47.516;8.596;2022-12-10T06:36:22;2.90;99.90
61253;DHT22;47127;47.516;8.596;2022-12-10T06:38:47;2.90;99.90
61253;DHT22;47127;47.516;8.596;2022-12-10T06:41:14;2.90;99.90
61253;DHT22;47127;47.516;8.596;2022-12-10T06:43:39;2.90;99.90
61253;DHT22;47127;47.516;8.596;2022-12-10T06:46:06;2.90;99.90
61253;DHT22;47127;47.516;8.596;2022-12-10T06:48:31;2.90;99.90
61253;DHT22;47127;47.516;8.596;2022-12-10T06:50:57;3.00;99.90
61253;DHT22;47127;47.516;8.596;2022-12-10T06:53:22;2.90;99.90
61253;DHT22;47127;47.516;8.596;2022-12-10T06:55:48;2.80;99.90
61253;DHT22;47127;47.516;8.596;2022-12-10T06:58:13;2.90;99.90
61253;DHT22;47127;47.516;8.596;2022-12-10T07:00:39;2.80;99.90
61253;DHT22;47127;47.516;8.596;2022-12-10T07:03:04;2.90;99.90
61253;DHT22;47127;47.516;8.596;2022-12-10T07:05:29;3.00;99.90
61253;DHT22;47127;47.516;8.596;2022-12-10T07:07:55;2.90;99.90
61253;DHT22;47127;47.516;8.596;2022-12-10T07:10:20;2.90;99.90
61253;DHT22;47127;47.516;8.596;2022-12-10T07:12:46;2.90;99.90
61253;DHT22;47127;47.516;8.596;2022-12-10T07:15:11;3.00;99.90
61253;DHT22;47127;47.516;8.596;2022-12-10T07:17:37;3.00;99.90
61253;DHT22;47127;47.516;8.596;2022-12-10T07:20:03;3.00;99.90
61253;DHT22;47127;47.516;8.596;2022-12-10T07:22:28;3.00;99.90
61253;DHT22;47127;47.516;8.596;2022-12-10T07:24:53;2.90;99.90
61253;DHT22;47127;47.516;8.596;2022-12-10T07:27:19;3.00;99.90
61253;DHT22;47127;47.516;8.596;2022-12-10T07:29:44;2.90;99.90
61253;DHT22;47127;47.516;8.596;2022-12-10T07:32:10;3.00;99.90
61253;DHT22;47127;47.516;8.596;2022-12-10T07:34:36;3.00;99.90
61253;DHT22;47127;47.516;8.596;2022-12-10T07:37:01;3.00;99.90
61253;DHT22;47127;47.516;8.596;2022-12-10T07:39:27;3.00;99.90
61253;DHT22;47127;47.516;8.596;2022-12-10T07:41:52;3.10;99.90
61253;DHT22;47127;47.516;8.596;2022-12-10T07:44:22;3.00;99.90
61253;DHT22;47127;47.516;8.596;2022-12-10T07:46:49;3.00;99.90
61253;DHT22;47127;47.516;8.596;2022-12-10T07:49:14;3.00;99.90
61253;DHT22;47127;47.516;8.596;2022-12-10T07:51:43;2.90;99.90
61253;DHT22;47127;47.516;8.596;2022-12-10T07:54:09;2.90;99.90
61253;DHT22;47127;47.516;8.596;2022-12-10T07:56:34;2.90;99.90
61253;DHT22;47127;47.516;8.596;2022-12-10T07:59:00;2.80;99.90
61253;DHT22;47127;47.516;8.596;2022-12-10T08:01:25;2.90;99.90
61253;DHT22;47127;47.516;8.596;2022-12-10T08:03:51;2.90;99.90
61253;DHT22;47127;47.516;8.596;2022-12-10T08:06:19;2.90;99.90
61253;DHT22;47127;47.516;8.596;2022-12-10T08:08:45;2.80;99.90
61253;DHT22;47127;47.516;8.596;2022-12-10T08:11:12;2.80;99.90
61253;DHT22;47127;47.516;8.596;2022-12-10T08:13:37;2.60;99.90
61253;DHT22;47127;47.516;8.596;2022-12-10T08:16:07;2.50;99.90
61253;DHT22;47127;47.516;8.596;2022-12-10T08:18:33;2.40;99.90
61253;DHT22;47127;47.516;8.596;2022-12-10T08:21:02;2.40;99.90
61253;DHT22;47127;47.516;8.596;2022-12-10T08:23:28;2.40;99.90
61253;DHT22;47127;47.516;8.596;2022-12-10T08:25:53;2.30;99.90
61253;DHT22;47127;47.516;8.596;2022-12-10T08:28:19;2.30;99.90
61253;DHT22;47127;47.516;8.596;2022-12-10T08:30:45;2.40;99.90
61253;DHT22;47127;47.516;8.596;2022-12-10T08:33:10;2.40;99.90
61253;DHT22;47127;47.516;8.596;2022-12-10T08:35:36;2.30;99.90
61253;DHT22;47127;47.516;8.596;2022-12-10T08:38:01;2.20;99.90
61253;DHT22;47127;47.516;8.596;2022-12-10T08:40:27;2.20;99.90
61253;DHT22;47127;47.516;8.596;2022-12-10T08:42:52;2.20;99.90
61253;DHT22;47127;47.516;8.596;2022-12-10T08:45:17;2.10;99.90
61253;DHT22;47127;47.516;8.596;2022-12-10T08:47:43;2.00;99.90
61253;DHT22;47127;47.516;8.596;2022-12-10T08:50:08;2.00;99.90
61253;DHT22;47127;47.516;8.596;2022-12-10T08:52:34;2.00;99.90
61253;DHT22;47127;47.516;8.596;2022-12-10T08:54:59;2.00;99.90
61253;DHT22;47127;47.516;8.596;2022-12-10T08:57:25;1.80;99.90
61253;DHT22;47127;47.516;8.596;2022-12-10T08:59:50;1.90;99.90
61253;DHT22;47127;47.516;8.596;2022-12-10T09:02:16;1.90;99.90
61253;DHT22;47127;47.516;8.596;2022-12-10T09:04:41;1.90;99.90
61253;DHT22;47127;47.516;8.596;2022-12-10T09:07:07;1.90;99.90
61253;DHT22;47127;47.516;8.596;2022-12-10T09:09:33;1.90;99.90
61253;DHT22;47127;47.516;8.596;2022-12-10T09:11:58;1.90;99.90
61253;DHT22;47127;47.516;8.596;2022-12-10T09:14:24;2.00;99.90
61253;DHT22;47127;47.516;8.596;2022-12-10T09:16:49;1.90;99.90
61253;DHT22;47127;47.516;8.596;2022-12-10T09:19:15;1.90;99.90
61253;DHT22;47127;47.516;8.596;2022-12-10T09:21:40;1.90;99.90
61253;DHT22;47127;47.516;8.596;2022-12-10T09:24:06;1.90;99.90
61253;DHT22;47127;47.516;8.596;2022-12-10T09:26:32;1.70;99.90
61253;DHT22;47127;47.516;8.596;2022-12-10T09:28:57;1.90;99.90
61253;DHT22;47127;47.516;8.596;2022-12-10T09:31:23;1.90;99.90
61253;DHT22;47127;47.516;8.596;2022-12-10T09:33:50;2.00;99.90
61253;DHT22;47127;47.516;8.596;2022-12-10T09:36:16;2.10;99.90
61253;DHT22;47127;47.516;8.596;2022-12-10T09:38:42;2.20;99.90
61253;DHT22;47127;47.516;8.596;2022-12-10T09:44:08;2.10;99.90
61253;DHT22;47127;47.516;8.596;2022-12-10T09:49:17;2.10;99.90
61253;DHT22;47127;47.516;8.596;2022-12-10T09:51:46;2.30;99.90
61253;DHT22;47127;47.516;8.596;2022-12-10T09:56:40;2.30;99.90
61253;DHT22;47127;47.516;8.596;2022-12-10T10:02:24;2.30;99.90
61253;DHT22;47127;47.516;8.596;2022-12-10T10:04:53;2.20;99.90
61253;DHT22;47127;47.516;8.596;2022-12-10T10:07:29;2.20;99.90
61253;DHT22;47127;47.516;8.596;2022-12-10T10:10:06;2.20;99.90
61253;DHT22;47127;47.516;8.596;2022-12-10T10:12:33;2.20;99.90
61253;DHT22;47127;47.516;8.596;2022-12-10T10:14:59;2.30;99.90
61253;DHT22;47127;47.516;8.596;2022-12-10T10:17:30;2.20;99.90
61253;DHT22;47127;47.516;8.596;2022-12-10T10:19:57;2.20;99.90
61253;DHT22;47127;47.516;8.596;2022-12-10T10:22:23;2.10;99.90
61253;DHT22;47127;47.516;8.596;2022-12-10T10:24:48;2.30;99.90
61253;DHT22;47127;47.516;8.596;2022-12-10T10:27:16;2.30;99.90
61253;DHT22;47127;47.516;8.596;2022-12-10T10:29:46;2.40;99.90
61253;DHT22;47127;47.516;8.596;2022-12-10T10:32:19;2.50;99.90
61253;DHT22;47127;47.516;8.596;2022-12-10T10:34:45;2.50;99.90
61253;DHT22;47127;47.516;8.596;2022-12-10T10:39:47;2.50;99.90
61253;DHT22;47127;47.516;8.596;2022-12-10T10:42:14;2.40;99.90
61253;DHT22;47127;47.516;8.596;2022-12-10T10:44:42;2.50;99.90
61253;DHT22;47127;47.516;8.596;2022-12-10T10:49:51;2.50;99.90
61253;DHT22;47127;47.516;8.596;2022-12-10T10:52:19;2.60;99.90
61253;DHT22;47127;47.516;8.596;2022-12-10T10:54:45;2.60;99.90
61253;DHT22;47127;47.516;8.596;2022-12-10T10:57:12;2.60;99.90
61253;DHT22;47127;47.516;8.596;2022-12-10T10:59:40;2.50;99.90
61253;DHT22;47127;47.516;8.596;2022-12-10T11:07:00;2.80;99.90
61253;DHT22;47127;47.516;8.596;2022-12-10T11:09:28;2.90;99.90
61253;DHT22;47127;47.516;8.596;2022-12-10T11:11:58;2.90;99.90
61253;DHT22;47127;47.516;8.596;2022-12-10T11:16:49;2.70;99.90
61253;DHT22;47127;47.516;8.596;2022-12-10T11:19:21;2.80;99.90
61253;DHT22;47127;47.516;8.596;2022-12-10T11:21:47;2.90;99.90
61253;DHT22;47127;47.516;8.596;2022-12-10T11:24:14;2.80;99.90
61253;DHT22;47127;47.516;8.596;2022-12-10T11:34:13;2.80;99.90
61253;DHT22;47127;47.516;8.596;2022-12-10T11:36:45;2.80;99.90
61253;DHT22;47127;47.516;8.596;2022-12-10T11:41:49;2.80;99.90
61253;DHT22;47127;47.516;8.596;2022-12-10T11:44:27;2.80;99.90
61253;DHT22;47127;47.516;8.596;2022-12-10T11:57:49;2.70;99.90
61253;DHT22;47127;47.516;8.596;2022-12-10T12:00:19;2.60;99.90
61253;DHT22;47127;47.516;8.596;2022-12-10T12:07:52;2.50;99.90
61253;DHT22;47127;47.516;8.596;2022-12-10T12:13:08;2.60;99.90
61253;DHT22;47127;47.516;8.596;2022-12-10T12:15:42;2.60;99.90
61253;DHT22;47127;47.516;8.596;2022-12-10T12:20:38;2.60;99.90
61253;DHT22;47127;47.516;8.596;2022-12-10T12:23:11;2.60;99.90
61253;DHT22;47127;47.516;8.596;2022-12-10T12:25:40;2.70;99.90
61253;DHT22;47127;47.516;8.596;2022-12-10T12:30:35;2.70;99.90
61253;DHT22;47127;47.516;8.596;2022-12-10T12:33:13;2.70;99.90
61253;DHT22;47127;47.516;8.596;2022-12-10T12:35:43;2.70;99.90
61253;DHT22;47127;47.516;8.596;2022-12-10T12:38:21;2.70;99.90
61253;DHT22;47127;47.516;8.596;2022-12-10T12:40:51;2.70;99.90
61253;DHT22;47127;47.516;8.596;2022-12-10T12:43:19;2.70;99.90
61253;DHT22;47127;47.516;8.596;2022-12-10T12:45:46;2.60;99.90
61253;DHT22;47127;47.516;8.596;2022-12-10T12:50:54;2.60;99.90
61253;DHT22;47127;47.516;8.596;2022-12-10T12:53:21;2.60;99.90
61253;DHT22;47127;47.516;8.596;2022-12-10T12:58:34;2.70;99.90
61253;DHT22;47127;47.516;8.596;2022-12-10T13:01:12;2.70;99.90
61253;DHT22;47127;47.516;8.596;2022-12-10T13:03:41;2.70;99.90
61253;DHT22;47127;47.516;8.596;2022-12-10T13:08:43;2.70;99.90
61253;DHT22;47127;47.516;8.596;2022-12-10T13:13:38;2.60;99.90
61253;DHT22;47127;47.516;8.596;2022-12-10T13:18:48;2.50;99.90
61253;DHT22;47127;47.516;8.596;2022-12-10T13:23:53;2.60;99.90
61253;DHT22;47127;47.516;8.596;2022-12-10T13:26:24;2.60;99.90
61253;DHT22;47127;47.516;8.596;2022-12-10T13:28:51;2.50;99.90
61253;DHT22;47127;47.516;8.596;2022-12-10T13:31:18;2.40;99.90
61253;DHT22;47127;47.516;8.596;2022-12-10T13:36:20;2.50;99.90
61253;DHT22;47127;47.516;8.596;2022-12-10T13:41:23;2.60;99.90
61253;DHT22;47127;47.516;8.596;2022-12-10T13:44:25;2.60;99.90
61253;DHT22;47127;47.516;8.596;2022-12-10T13:46:57;2.70;99.90
61253;DHT22;47127;47.516;8.596;2022-12-10T13:49:27;2.80;99.90
61253;DHT22;47127;47.516;8.596;2022-12-10T13:51:58;2.70;99.90
61253;DHT22;47127;47.516;8.596;2022-12-10T14:04:46;2.60;99.90
61253;DHT22;47127;47.516;8.596;2022-12-10T14:07:14;2.60;99.90
61253;DHT22;47127;47.516;8.596;2022-12-10T14:09:51;2.60;99.90
61253;DHT22;47127;47.516;8.596;2022-12-10T14:12:18;2.50;99.90
61253;DHT22;47127;47.516;8.596;2022-12-10T14:14:47;2.50;99.90
61253;DHT22;47127;47.516;8.596;2022-12-10T14:17:17;2.60;99.90
61253;DHT22;47127;47.516;8.596;2022-12-10T14:19:44;2.60;99.90
61253;DHT22;47127;47.516;8.596;2022-12-10T14:22:16;2.40;99.90
61253;DHT22;47127;47.516;8.596;2022-12-10T14:24:42;2.40;99.90
61253;DHT22;47127;47.516;8.596;2022-12-10T14:29:34;2.40;99.90
61253;DHT22;47127;47.516;8.596;2022-12-10T14:31:59;2.50;99.90
61253;DHT22;47127;47.516;8.596;2022-12-10T14:34:26;2.50;99.90
61253;DHT22;47127;47.516;8.596;2022-12-10T14:36:54;2.50;99.90
61253;DHT22;47127;47.516;8.596;2022-12-10T14:39:25;2.50;99.90
61253;DHT22;47127;47.516;8.596;2022-12-10T14:41:51;2.60;99.90
61253;DHT22;47127;47.516;8.596;2022-12-10T14:44:18;2.60;99.90
61253;DHT22;47127;47.516;8.596;2022-12-10T14:46:46;2.60;99.90
61253;DHT22;47127;47.516;8.596;2022-12-10T14:49:13;2.50;99.90
61253;DHT22;47127;47.516;8.596;2022-12-10T14:51:40;2.50;99.90
61253;DHT22;47127;47.516;8.596;2022-12-10T14:54:12;2.60;99.90
61253;DHT22;47127;47.516;8.596;2022-12-10T14:56:47;2.50;99.90
61253;DHT22;47127;47.516;8.596;2022-12-10T14:59:14;2.50;99.90
61253;DHT22;47127;47.516;8.596;2022-12-10T15:01:41;2.50;99.90
61253;DHT22;47127;47.516;8.596;2022-12-10T15:04:12;2.40;99.90
61253;DHT22;47127;47.516;8.596;2022-12-10T15:06:38;2.30;99.90
61253;DHT22;47127;47.516;8.596;2022-12-10T15:09:04;2.40;99.90
61253;DHT22;47127;47.516;8.596;2022-12-10T15:11:30;2.20;99.90
61253;DHT22;47127;47.516;8.596;2022-12-10T15:13:57;2.30;99.90
61253;DHT22;47127;47.516;8.596;2022-12-10T15:16:31;2.30;99.90
61253;DHT22;47127;47.516;8.596;2022-12-10T15:19:09;2.30;99.90
61253;DHT22;47127;47.516;8.596;2022-12-10T15:21:41;2.30;99.90
61253;DHT22;47127;47.516;8.596;2022-12-10T15:24:07;2.30;99.90
61253;DHT22;47127;47.516;8.596;2022-12-10T15:26:35;2.30;99.90
61253;DHT22;47127;47.516;8.596;2022-12-10T15:31:44;2.20;99.90
61253;DHT22;47127;47.516;8.596;2022-12-10T15:34:11;2.20;99.90
61253;DHT22;47127;47.516;8.596;2022-12-10T15:36:59;2.10;99.90
61253;DHT22;47127;47.516;8.596;2022-12-10T15:39:24;2.20;99.90
61253;DHT22;47127;47.516;8.596;2022-12-10T15:41:54;2.30;99.90
61253;DHT22;47127;47.516;8.596;2022-12-10T15:47:03;2.30;99.90
61253;DHT22;47127;47.516;8.596;2022-12-10T15:49:29;2.30;99.90
61253;DHT22;47127;47.516;8.596;2022-12-10T15:51:54;2.20;99.90
61253;DHT22;47127;47.516;8.596;2022-12-10T15:54:27;2.30;99.90
61253;DHT22;47127;47.516;8.596;2022-12-10T15:56:52;2.20;99.90
61253;DHT22;47127;47.516;8.596;2022-12-10T15:59:18;2.20;99.90
61253;DHT22;47127;47.516;8.596;2022-12-10T16:01:44;2.20;99.90
61253;DHT22;47127;47.516;8.596;2022-12-10T16:04:09;2.20;99.90
61253;DHT22;47127;47.516;8.596;2022-12-10T16:06:35;2.10;99.90
61253;DHT22;47127;47.516;8.596;2022-12-10T16:09:00;2.10;99.90
61253;DHT22;47127;47.516;8.596;2022-12-10T16:11:26;2.10;99.90
61253;DHT22;47127;47.516;8.596;2022-12-10T16:13:52;2.10;99.90
61253;DHT22;47127;47.516;8.596;2022-12-10T16:16:19;2.10;99.90
61253;DHT22;47127;47.516;8.596;2022-12-10T16:18:44;2.10;99.90
61253;DHT22;47127;47.516;8.596;2022-12-10T16:21:11;2.10;99.90
61253;DHT22;47127;47.516;8.596;2022-12-10T16:23:36;2.00;99.90
61253;DHT22;47127;47.516;8.596;2022-12-10T16:26:15;2.00;99.90
61253;DHT22;47127;47.516;8.596;2022-12-10T16:28:41;2.00;99.90
61253;DHT22;47127;47.516;8.596;2022-12-10T16:31:07;2.00;99.90
61253;DHT22;47127;47.516;8.596;2022-12-10T16:33:34;2.00;99.90
61253;DHT22;47127;47.516;8.596;2022-12-10T16:36:00;2.10;99.90
61253;DHT22;47127;47.516;8.596;2022-12-10T16:38:27;2.10;99.90
61253;DHT22;47127;47.516;8.596;2022-12-10T16:40:52;2.10;99.90
61253;DHT22;47127;47.516;8.596;2022-12-10T16:43:19;2.00;99.90
61253;DHT22;47127;47.516;8.596;2022-12-10T16:45:45;2.20;99.90
61253;DHT22;47127;47.516;8.596;2022-12-10T16:48:10;2.10;99.90
61253;DHT22;47127;47.516;8.596;2022-12-10T16:50:36;2.20;99.90
61253;DHT22;47127;47.516;8.596;2022-12-10T16:53:14;2.20;99.90
61253;DHT22;47127;47.516;8.596;2022-12-10T16:55:42;2.20;99.90
61253;DHT22;47127;47.516;8.596;2022-12-10T16:58:08;2.20;99.90
61253;DHT22;47127;47.516;8.596;2022-12-10T17:00:34;2.20;99.90
61253;DHT22;47127;47.516;8.596;2022-12-10T17:03:00;2.20;99.90
61253;DHT22;47127;47.516;8.596;2022-12-10T17:05:35;2.20;99.90
61253;DHT22;47127;47.516;8.596;2022-12-10T17:08:02;2.30;99.90
61253;DHT22;47127;47.516;8.596;2022-12-10T17:10:27;2.40;99.90
61253;DHT22;47127;47.516;8.596;2022-12-10T17:13:12;2.30;99.90
61253;DHT22;47127;47.516;8.596;2022-12-10T17:15:38;2.30;99.90
61253;DHT22;47127;47.516;8.596;2022-12-10T17:18:04;2.20;99.90
61253;DHT22;47127;47.516;8.596;2022-12-10T17:20:29;2.20;99.90
61253;DHT22;47127;47.516;8.596;2022-12-10T17:22:55;2.20;99.90
61253;DHT22;47127;47.516;8.596;2022-12-10T17:25:20;2.10;99.90
61253;DHT22;47127;47.516;8.596;2022-12-10T17:27:46;2.10;99.90
61253;DHT22;47127;47.516;8.596;2022-12-10T17:30:13;2.10;99.90
61253;DHT22;47127;47.516;8.596;2022-12-10T17:32:39;2.20;99.90
61253;DHT22;47127;47.516;8.596;2022-12-10T17:35:04;2.20;99.90
61253;DHT22;47127;47.516;8.596;2022-12-10T17:37:31;2.20;99.90
61253;DHT22;47127;47.516;8.596;2022-12-10T17:39:56;2.20;99.90
61253;DHT22;47127;47.516;8.596;2022-12-10T17:42:22;2.10;99.90
61253;DHT22;47127;47.516;8.596;2022-12-10T17:44:47;2.10;99.90